Time;durP1;ratioP1;P1;durP2;ratioP2;P2;SDS_P1;SDS_P2;PMS_P1;PMS_P2;Temp;Humidity;BMP_temperature;BMP_pressure;BME280_temperature;BME280_humidity;BME280_pressure;Samples;Min_cycle;Max_cycle;Signal;HPM_P1;HPM_P2
2022/03/18 00:00:20;;;;;;;16.17;8.73;;;;;;;;;;5035446;28;20030;-63
2022/03/18 00:02:47;;;;;;;18.48;8.85;;;;;;;;;;5035687;28;20029;-63
2022/03/18 00:05:13;;;;;;;16.02;7.50;;;;;;;;;;5035635;28;20381;-63
2022/03/18 00:07:44;;;;;;;14.88;7.82;;;;;;;;;;5034937;28;20018;-63
2022/03/18 00:10:11;;;;;;;20.02;8.60;;;;;;;;;;5035700;28;20037;-63
2022/03/18 00:12:37;;;;;;;22.95;10.32;;;;;;;;;;5032738;28;20045;-63
2022/03/18 00:15:05;;;;;;;20.10;9.65;;;;;;;;;;5031978;28;20454;-63
2022/03/18 00:17:31;;;;;;;26.00;10.88;;;;;;;;;;5017794;28;20397;-63
2022/03/18 00:19:57;;;;;;;21.25;11.50;;;;;;;;;;5030891;28;20527;-63
2022/03/18 00:22:23;;;;;;;18.55;9.60;;;;;;;;;;5033378;28;20040;-63
2022/03/18 00:24:49;;;;;;;17.73;10.02;;;;;;;;;;5032938;28;20083;-63
2022/03/18 00:27:16;;;;;;;23.27;10.35;;;;;;;;;;5033609;28;20030;-63
2022/03/18 00:29:42;;;;;;;20.55;10.27;;;;;;;;;;5033398;28;20025;-63
2022/03/18 00:32:08;;;;;;;17.27;9.20;;;;;;;;;;5032756;28;20018;-63
2022/03/18 00:34:35;;;;;;;16.17;9.05;;;;;;;;;;5015638;28;20045;-63
2022/03/18 00:37:01;;;;;;;19.40;9.00;;;;;;;;;;5016113;28;20053;-63
2022/03/18 00:39:27;;;;;;;20.42;8.43;;;;;;;;;;5014352;28;20026;-63
2022/03/18 00:41:53;;;;;;;12.20;7.75;;;;;;;;;;5014404;28;20022;-63
2022/03/18 00:44:20;;;;;;;15.45;8.35;;;;;;;;;;4996597;28;20445;-63
2022/03/18 00:46:46;;;;;;;14.35;7.32;;;;;;;;;;5014358;28;20034;-63
2022/03/18 00:52:04;;;;;;;14.38;7.43;;;;;;;;;;5015403;28;20030;-63
2022/03/18 00:54:40;;;;;;;18.13;8.30;;;;;;;;;;5014505;28;20054;-63
2022/03/18 00:57:07;;;;;;;20.40;7.70;;;;;;;;;;5014099;28;20021;-63
2022/03/18 00:59:33;;;;;;;16.25;7.80;;;;;;;;;;5016341;28;20029;-63
2022/03/18 01:01:59;;;;;;;16.40;7.68;;;;;;;;;;5017995;28;20029;-63
2022/03/18 01:04:26;;;;;;;15.77;8.07;;;;;;;;;;5021663;28;20034;-63
2022/03/18 01:06:53;;;;;;;16.50;8.60;;;;;;;;;;5033632;28;20033;-63
2022/03/18 01:09:20;;;;;;;21.70;9.88;;;;;;;;;;5034432;28;20477;-63
2022/03/18 01:11:46;;;;;;;21.38;9.45;;;;;;;;;;5034680;28;20034;-63
2022/03/18 01:14:12;;;;;;;15.05;8.02;;;;;;;;;;5015978;28;20025;-63
2022/03/18 01:16:39;;;;;;;19.77;8.73;;;;;;;;;;5034203;28;20029;-63
2022/03/18 01:19:05;;;;;;;16.60;8.93;;;;;;;;;;5034370;28;20532;-63
2022/03/18 01:21:31;;;;;;;14.57;8.88;;;;;;;;;;5034393;28;20063;-63
2022/03/18 01:23:57;;;;;;;15.82;8.98;;;;;;;;;;5033997;28;20425;-63
2022/03/18 01:26:24;;;;;;;16.05;9.13;;;;;;;;;;5034077;28;20051;-63
2022/03/18 01:28:50;;;;;;;17.50;8.57;;;;;;;;;;5033779;28;20040;-63
2022/03/18 01:31:16;;;;;;;22.45;9.32;;;;;;;;;;5034179;28;20167;-63
2022/03/18 01:33:42;;;;;;;14.50;8.25;;;;;;;;;;5034143;28;20116;-63
2022/03/18 01:36:11;;;;;;;17.55;8.63;;;;;;;;;;5033865;28;20041;-63
2022/03/18 01:38:37;;;;;;;15.15;8.63;;;;;;;;;;5033320;28;20037;-63
2022/03/18 01:41:03;;;;;;;17.77;8.32;;;;;;;;;;5033672;28;20026;-63
2022/03/18 01:43:36;;;;;;;17.30;9.38;;;;;;;;;;5033733;28;20029;-63
2022/03/18 01:46:02;;;;;;;16.92;8.82;;;;;;;;;;5033468;28;20091;-63
2022/03/18 01:48:28;;;;;;;18.05;8.82;;;;;;;;;;5033897;28;20029;-63
2022/03/18 01:50:54;;;;;;;13.10;8.02;;;;;;;;;;5033700;28;20108;-63
2022/03/18 01:53:20;;;;;;;17.45;8.13;;;;;;;;;;5033626;28;20083;-63
2022/03/18 01:55:47;;;;;;;19.98;8.25;;;;;;;;;;5033349;28;20083;-63
2022/03/18 01:58:13;;;;;;;16.10;8.00;;;;;;;;;;5033498;28;20029;-63
2022/03/18 02:00:39;;;;;;;22.10;7.82;;;;;;;;;;5033722;28;20037;-63
2022/03/18 02:03:05;;;;;;;13.75;6.78;;;;;;;;;;5033397;28;20026;-63
2022/03/18 02:05:31;;;;;;;17.77;6.40;;;;;;;;;;5033470;28;20628;-63
2022/03/18 02:07:57;;;;;;;15.35;7.35;;;;;;;;;;5033255;28;20030;-63
2022/03/18 02:10:24;;;;;;;13.65;7.15;;;;;;;;;;5033311;28;20030;-63
2022/03/18 02:12:50;;;;;;;13.60;8.15;;;;;;;;;;5033315;28;20082;-63
2022/03/18 02:15:16;;;;;;;16.90;8.55;;;;;;;;;;5033325;28;20108;-63
2022/03/18 02:17:42;;;;;;;17.35;8.95;;;;;;;;;;5033269;28;20029;-63
2022/03/18 02:20:08;;;;;;;18.27;7.93;;;;;;;;;;5033104;28;20048;-63
2022/03/18 02:22:38;;;;;;;14.57;7.68;;;;;;;;;;5033161;28;20037;-63
2022/03/18 02:25:05;;;;;;;16.42;8.13;;;;;;;;;;5032520;28;20052;-63
2022/03/18 02:27:31;;;;;;;13.25;7.85;;;;;;;;;;5033325;28;20043;-63
2022/03/18 02:29:57;;;;;;;17.75;8.25;;;;;;;;;;5033062;28;20112;-63
2022/03/18 02:32:23;;;;;;;18.48;7.75;;;;;;;;;;5033044;28;20091;-63
2022/03/18 02:34:49;;;;;;;14.35;9.18;;;;;;;;;;5032708;28;20113;-63
2022/03/18 02:37:16;;;;;;;17.50;8.23;;;;;;;;;;5033008;28;21339;-63
2022/03/18 02:39:42;;;;;;;21.50;9.30;;;;;;;;;;5032782;28;20100;-63
2022/03/18 02:42:08;;;;;;;18.90;9.55;;;;;;;;;;5032725;28;20461;-63
2022/03/18 02:44:34;;;;;;;16.48;8.35;;;;;;;;;;5033080;28;20079;-63
2022/03/18 02:47:00;;;;;;;16.05;8.32;;;;;;;;;;5032673;28;20037;-63
2022/03/18 02:49:26;;;;;;;14.52;8.48;;;;;;;;;;5032875;28;20033;-63
2022/03/18 02:51:52;;;;;;;16.23;8.13;;;;;;;;;;5032919;28;20075;-63
2022/03/18 02:54:19;;;;;;;16.15;8.52;;;;;;;;;;5032395;28;20124;-63
2022/03/18 02:56:45;;;;;;;19.20;8.70;;;;;;;;;;5032859;28;20030;-63
2022/03/18 02:59:12;;;;;;;17.42;8.75;;;;;;;;;;5032806;28;20045;-63
2022/03/18 03:01:38;;;;;;;17.58;9.27;;;;;;;;;;5032857;28;20472;-63
2022/03/18 03:04:04;;;;;;;19.73;8.63;;;;;;;;;;5032489;28;20030;-63
2022/03/18 03:09:17;;;;;;;20.40;8.05;;;;;;;;;;5012418;28;20038;-63
2022/03/18 03:11:47;;;;;;;14.77;7.68;;;;;;;;;;5020678;28;20079;-63
2022/03/18 03:14:13;;;;;;;14.15;7.22;;;;;;;;;;5032312;28;20108;-63
2022/03/18 03:16:39;;;;;;;11.77;5.90;;;;;;;;;;5032505;28;20087;-63
2022/03/18 03:19:05;;;;;;;15.23;6.63;;;;;;;;;;5032618;28;20029;-63
2022/03/18 03:21:32;;;;;;;9.80;6.32;;;;;;;;;;5032492;28;20033;-63
2022/03/18 03:23:58;;;;;;;11.43;6.35;;;;;;;;;;5032407;28;20038;-63
2022/03/18 03:26:24;;;;;;;11.43;6.10;;;;;;;;;;5032542;28;20045;-63
2022/03/18 03:28:50;;;;;;;9.13;6.28;;;;;;;;;;5032623;28;20037;-63
2022/03/18 03:31:16;;;;;;;11.50;6.45;;;;;;;;;;5032376;28;20037;-63
2022/03/18 03:33:44;;;;;;;17.02;6.88;;;;;;;;;;5032292;28;20034;-63
2022/03/18 03:36:10;;;;;;;18.05;6.45;;;;;;;;;;5032543;28;20417;-63
2022/03/18 03:38:36;;;;;;;18.85;6.93;;;;;;;;;;5032336;28;20037;-63
2022/03/18 03:41:04;;;;;;;13.50;7.22;;;;;;;;;;5032510;28;20030;-63
2022/03/18 03:43:30;;;;;;;15.13;7.43;;;;;;;;;;5032539;28;20069;-63
2022/03/18 03:45:56;;;;;;;16.90;7.75;;;;;;;;;;5032313;28;20031;-63
2022/03/18 03:48:23;;;;;;;18.52;7.18;;;;;;;;;;5031983;28;20087;-63
2022/03/18 03:50:49;;;;;;;16.23;7.18;;;;;;;;;;5032422;28;20080;-63
2022/03/18 03:53:15;;;;;;;15.23;6.38;;;;;;;;;;5031810;28;20041;-63
2022/03/18 03:55:42;;;;;;;11.68;6.40;;;;;;;;;;5032454;28;20042;-63
2022/03/18 03:58:08;;;;;;;11.05;6.68;;;;;;;;;;5032253;28;20465;-63
2022/03/18 04:00:38;;;;;;;17.13;8.77;;;;;;;;;;5032182;28;20040;-63
2022/03/18 04:03:04;;;;;;;17.08;7.88;;;;;;;;;;5034044;28;20037;-63
2022/03/18 04:05:34;;;;;;;16.92;7.35;;;;;;;;;;5035781;28;20063;-63
2022/03/18 04:08:01;;;;;;;17.70;6.88;;;;;;;;;;5035565;28;20036;-63
2022/03/18 04:10:27;;;;;;;13.70;6.38;;;;;;;;;;5035783;28;20087;-63
2022/03/18 04:12:54;;;;;;;12.27;6.55;;;;;;;;;;5035782;28;20116;-63
2022/03/18 04:15:21;;;;;;;14.90;6.43;;;;;;;;;;5035752;28;20026;-63
2022/03/18 04:17:49;;;;;;;11.00;6.13;;;;;;;;;;5035655;28;20116;-63
2022/03/18 04:20:16;;;;;;;10.05;6.65;;;;;;;;;;5035430;28;20064;-63
2022/03/18 04:22:42;;;;;;;13.48;6.25;;;;;;;;;;5035246;28;20084;-63
2022/03/18 04:25:09;;;;;;;15.13;6.32;;;;;;;;;;5034935;28;20046;-63
2022/03/18 04:27:36;;;;;;;13.45;6.68;;;;;;;;;;5035419;28;20551;-63
2022/03/18 04:30:02;;;;;;;18.05;6.38;;;;;;;;;;5035075;28;20026;-63
2022/03/18 04:32:28;;;;;;;9.73;6.40;;;;;;;;;;5035316;28;20092;-63
2022/03/18 04:34:55;;;;;;;11.70;6.70;;;;;;;;;;5027650;28;20083;-63
2022/03/18 04:37:21;;;;;;;16.20;6.93;;;;;;;;;;5024725;28;20129;-63
2022/03/18 04:39:47;;;;;;;13.52;6.70;;;;;;;;;;5025143;28;20022;-63
2022/03/18 04:42:13;;;;;;;16.55;6.03;;;;;;;;;;5026012;28;20434;-63
2022/03/18 04:44:39;;;;;;;15.23;6.80;;;;;;;;;;5021994;28;20026;-63
2022/03/18 04:47:06;;;;;;;11.68;5.97;;;;;;;;;;5033637;28;20132;-63
2022/03/18 04:49:32;;;;;;;10.73;5.38;;;;;;;;;;5033228;28;20764;-63
2022/03/18 04:51:58;;;;;;;12.25;5.88;;;;;;;;;;5034246;28;20477;-63
2022/03/18 04:54:24;;;;;;;16.48;6.85;;;;;;;;;;5033937;28;20056;-63
2022/03/18 04:59:35;;;;;;;11.27;5.95;;;;;;;;;;5034872;28;20025;-63
2022/03/18 05:02:01;;;;;;;10.80;5.60;;;;;;;;;;5031111;28;20518;-63
2022/03/18 05:04:27;;;;;;;15.77;5.60;;;;;;;;;;5023257;28;20029;-63
2022/03/18 05:06:54;;;;;;;11.68;6.22;;;;;;;;;;5034025;28;20037;-63
2022/03/18 05:09:23;;;;;;;14.55;7.13;;;;;;;;;;5034336;28;20053;-63
2022/03/18 05:11:49;;;;;;;14.18;6.10;;;;;;;;;;5034636;28;20044;-63
2022/03/18 05:14:16;;;;;;;11.07;5.65;;;;;;;;;;5032735;28;20103;-63
2022/03/18 05:16:42;;;;;;;12.13;6.30;;;;;;;;;;5034246;28;20026;-63
2022/03/18 05:19:09;;;;;;;13.23;6.82;;;;;;;;;;5033691;28;20018;-63
2022/03/18 05:21:36;;;;;;;14.65;5.75;;;;;;;;;;5034389;28;20036;-63
2022/03/18 05:24:03;;;;;;;8.45;5.72;;;;;;;;;;5033670;28;20495;-63
2022/03/18 05:26:29;;;;;;;10.93;5.75;;;;;;;;;;5034197;28;20071;-63
2022/03/18 05:28:55;;;;;;;11.95;5.47;;;;;;;;;;5033546;28;20029;-63
2022/03/18 05:31:22;;;;;;;11.38;6.45;;;;;;;;;;5033835;28;20036;-63
2022/03/18 05:33:48;;;;;;;8.13;5.63;;;;;;;;;;5033436;28;20520;-63
2022/03/18 05:36:14;;;;;;;10.05;5.47;;;;;;;;;;5033855;28;20470;-63
2022/03/18 05:38:40;;;;;;;13.70;6.25;;;;;;;;;;5033648;28;20527;-63
2022/03/18 05:41:07;;;;;;;15.95;5.95;;;;;;;;;;5034212;28;20113;-63
2022/03/18 05:43:33;;;;;;;9.10;5.47;;;;;;;;;;5033878;28;20049;-63
2022/03/18 05:45:59;;;;;;;15.98;6.78;;;;;;;;;;5033720;28;20108;-63
2022/03/18 05:48:26;;;;;;;8.35;5.63;;;;;;;;;;5033376;28;20038;-63
2022/03/18 05:50:52;;;;;;;11.07;6.25;;;;;;;;;;5032608;28;20060;-63
2022/03/18 05:53:18;;;;;;;13.18;7.18;;;;;;;;;;5034015;28;20037;-63
2022/03/18 05:58:34;;;;;;;11.48;6.57;;;;;;;;;;4972579;28;20050;-63
2022/03/18 06:01:01;;;;;;;10.25;5.93;;;;;;;;;;4968959;28;20039;-63
2022/03/18 06:03:27;;;;;;;13.40;6.30;;;;;;;;;;4962732;28;20043;-63
2022/03/18 06:05:53;;;;;;;15.20;6.45;;;;;;;;;;4952367;29;20546;-63
2022/03/18 06:13:49;;;;;;;13.20;6.72;;;;;;;;;;4971936;28;20043;-63
2022/03/18 06:16:15;;;;;;;10.57;6.63;;;;;;;;;;4956225;28;20555;-63
2022/03/18 06:18:41;;;;;;;10.52;6.47;;;;;;;;;;4952085;29;20035;-63
2022/03/18 06:21:08;;;;;;;16.85;7.88;;;;;;;;;;4962944;28;20038;-63
2022/03/18 06:23:35;;;;;;;11.50;6.35;;;;;;;;;;4970661;28;20031;-63
2022/03/18 06:26:01;;;;;;;13.15;6.18;;;;;;;;;;4970319;28;20030;-63
2022/03/18 06:28:28;;;;;;;11.32;6.25;;;;;;;;;;4971290;28;20047;-63
2022/03/18 06:30:54;;;;;;;15.20;6.75;;;;;;;;;;4971641;28;20043;-63
2022/03/18 06:33:20;;;;;;;9.90;5.50;;;;;;;;;;4971199;28;20035;-63
2022/03/18 06:35:46;;;;;;;13.20;6.32;;;;;;;;;;5003109;28;20053;-63
2022/03/18 06:38:12;;;;;;;10.48;6.03;;;;;;;;;;5029241;28;20072;-63
2022/03/18 06:40:38;;;;;;;14.57;7.10;;;;;;;;;;5032366;28;20021;-63
2022/03/18 06:43:04;;;;;;;14.48;7.10;;;;;;;;;;5025485;28;20097;-71
2022/03/18 06:45:30;;;;;;;15.85;7.78;;;;;;;;;;5030818;28;20026;-63
2022/03/18 06:47:56;;;;;;;16.27;7.03;;;;;;;;;;5024339;28;20497;-63
2022/03/18 06:50:24;;;;;;;11.98;5.97;;;;;;;;;;5029901;28;20461;-63
2022/03/18 06:52:51;;;;;;;11.70;7.18;;;;;;;;;;5031004;28;20026;-63
2022/03/18 06:55:17;;;;;;;17.75;7.40;;;;;;;;;;5031773;28;20034;-63
2022/03/18 06:57:43;;;;;;;17.10;7.03;;;;;;;;;;5031278;28;20030;-63
2022/03/18 07:00:10;;;;;;;13.95;6.70;;;;;;;;;;5032006;28;20030;-63
2022/03/18 07:02:37;;;;;;;12.52;6.95;;;;;;;;;;5031827;28;20104;-63
2022/03/18 07:05:03;;;;;;;14.23;7.45;;;;;;;;;;5031267;28;20033;-63
2022/03/18 07:07:30;;;;;;;23.15;8.73;;;;;;;;;;5026930;28;20037;-63
2022/03/18 07:09:56;;;;;;;23.38;7.85;;;;;;;;;;5030971;28;20055;-63
2022/03/18 07:12:22;;;;;;;27.13;9.90;;;;;;;;;;5020188;28;20030;-63
2022/03/18 07:14:49;;;;;;;133.27;13.50;;;;;;;;;;5031240;28;20057;-63
2022/03/18 07:20:02;;;;;;;257.80;17.27;;;;;;;;;;5030443;28;20091;-63
2022/03/18 07:22:28;;;;;;;147.82;14.70;;;;;;;;;;5030771;28;20035;-63
2022/03/18 07:24:54;;;;;;;181.35;15.38;;;;;;;;;;5030534;28;20103;-63
2022/03/18 07:27:20;;;;;;;33.45;11.23;;;;;;;;;;5030168;28;20026;-63
2022/03/18 07:29:46;;;;;;;122.00;14.02;;;;;;;;;;5030246;28;20030;-63
2022/03/18 07:32:12;;;;;;;125.95;12.32;;;;;;;;;;5029851;28;20065;-63
2022/03/18 07:34:38;;;;;;;59.75;10.55;;;;;;;;;;5029879;28;20537;-63
2022/03/18 07:37:05;;;;;;;168.05;15.20;;;;;;;;;;5030741;28;20592;-63
2022/03/18 07:39:31;;;;;;;105.13;12.95;;;;;;;;;;5034208;28;20040;-63
2022/03/18 07:41:57;;;;;;;75.35;12.90;;;;;;;;;;5034181;28;20037;-63
2022/03/18 07:44:23;;;;;;;175.55;15.10;;;;;;;;;;5034123;28;20017;-63
2022/03/18 07:46:49;;;;;;;62.35;12.43;;;;;;;;;;5034165;28;20072;-63
2022/03/18 07:49:15;;;;;;;43.50;10.30;;;;;;;;;;5034146;28;20029;-63
2022/03/18 07:51:41;;;;;;;92.90;12.40;;;;;;;;;;5033964;28;20036;-63
2022/03/18 07:54:07;;;;;;;91.78;11.07;;;;;;;;;;5034365;28;20049;-63
2022/03/18 07:56:33;;;;;;;59.45;10.05;;;;;;;;;;5033862;28;20040;-63
2022/03/18 07:59:00;;;;;;;68.95;10.18;;;;;;;;;;5015265;28;20421;-63
2022/03/18 08:01:27;;;;;;;62.03;10.27;;;;;;;;;;5033789;28;20127;-63
2022/03/18 08:03:53;;;;;;;37.75;9.60;;;;;;;;;;5033419;28;20040;-63
2022/03/18 08:06:20;;;;;;;39.88;10.02;;;;;;;;;;5033933;28;20401;-63
2022/03/18 08:08:46;;;;;;;51.92;10.55;;;;;;;;;;5033746;28;20037;-63
2022/03/18 08:11:13;;;;;;;45.45;10.23;;;;;;;;;;5033068;28;20022;-63
2022/03/18 08:13:39;;;;;;;64.10;12.80;;;;;;;;;;5033314;28;20034;-63
2022/03/18 08:16:05;;;;;;;61.17;11.10;;;;;;;;;;5033310;28;20124;-63
2022/03/18 08:18:31;;;;;;;60.88;13.25;;;;;;;;;;5032913;28;20429;-63
2022/03/18 08:20:57;;;;;;;45.17;10.88;;;;;;;;;;5026604;28;20421;-63
2022/03/18 08:23:26;;;;;;;35.13;8.73;;;;;;;;;;5033521;28;20042;-63
2022/03/18 08:25:52;;;;;;;34.10;9.65;;;;;;;;;;5033165;28;20040;-63
2022/03/18 08:28:18;;;;;;;31.75;10.57;;;;;;;;;;5033610;28;20044;-63
2022/03/18 08:30:44;;;;;;;36.10;10.13;;;;;;;;;;5033106;28;20786;-63
2022/03/18 08:33:10;;;;;;;39.47;10.93;;;;;;;;;;5033700;28;20417;-63
2022/03/18 08:35:38;;;;;;;23.27;8.13;;;;;;;;;;5033340;28;20025;-63
2022/03/18 08:38:07;;;;;;;18.05;8.07;;;;;;;;;;5028299;28;20040;-63
2022/03/18 08:40:34;;;;;;;20.92;9.15;;;;;;;;;;5033261;28;20041;-63
2022/03/18 08:43:02;;;;;;;16.45;9.65;;;;;;;;;;5033136;28;20024;-63
2022/03/18 08:45:28;;;;;;;15.77;8.48;;;;;;;;;;5033475;28;20026;-63
2022/03/18 08:47:54;;;;;;;16.45;6.53;;;;;;;;;;5032087;28;20021;-63
2022/03/18 08:50:21;;;;;;;14.63;6.90;;;;;;;;;;5030085;28;20046;-63
2022/03/18 08:52:49;;;;;;;15.20;7.18;;;;;;;;;;5025499;28;20021;-63
2022/03/18 08:55:15;;;;;;;20.20;7.50;;;;;;;;;;5032763;28;20034;-63
2022/03/18 08:57:41;;;;;;;17.38;8.50;;;;;;;;;;5033051;28;20029;-63
2022/03/18 09:00:13;;;;;;;18.05;8.25;;;;;;;;;;5032536;28;20131;-63
2022/03/18 09:02:39;;;;;;;12.52;7.30;;;;;;;;;;5031960;28;20024;-63
2022/03/18 09:05:10;;;;;;;16.85;7.10;;;;;;;;;;5031630;28;20064;-64
2022/03/18 09:07:37;;;;;;;22.42;7.88;;;;;;;;;;5031532;28;20485;-63
2022/03/18 09:10:04;;;;;;;20.50;7.50;;;;;;;;;;5032349;28;20076;-63
2022/03/18 09:12:30;;;;;;;21.55;7.57;;;;;;;;;;5032661;28;20022;-63
2022/03/18 09:14:58;;;;;;;12.15;7.10;;;;;;;;;;5032592;28;20053;-63
2022/03/18 09:17:24;;;;;;;17.52;7.38;;;;;;;;;;5032613;28;20037;-63
2022/03/18 09:19:51;;;;;;;22.92;7.47;;;;;;;;;;5030430;28;20025;-63
2022/03/18 09:22:19;;;;;;;19.15;7.53;;;;;;;;;;5032434;28;20365;-63
2022/03/18 09:24:46;;;;;;;20.00;7.70;;;;;;;;;;5032474;28;20125;-63
2022/03/18 09:27:12;;;;;;;18.98;7.30;;;;;;;;;;5025867;28;20445;-63
2022/03/18 09:29:38;;;;;;;15.88;6.32;;;;;;;;;;5027588;28;20025;-63
2022/03/18 09:32:05;;;;;;;17.25;7.00;;;;;;;;;;5032190;28;20032;-63
2022/03/18 09:34:31;;;;;;;21.30;7.95;;;;;;;;;;5031982;28;20116;-64
2022/03/18 09:36:58;;;;;;;18.42;5.97;;;;;;;;;;5032152;28;20033;-63
2022/03/18 09:39:26;;;;;;;11.60;4.95;;;;;;;;;;5025246;28;20024;-63
2022/03/18 09:41:53;;;;;;;18.77;5.50;;;;;;;;;;5032009;28;20034;-63
2022/03/18 09:44:19;;;;;;;14.48;4.80;;;;;;;;;;5031602;28;20405;-63
2022/03/18 09:46:49;;;;;;;12.52;3.92;;;;;;;;;;5032192;28;20029;-63
2022/03/18 09:49:16;;;;;;;14.77;3.67;;;;;;;;;;5031825;28;20037;-63
2022/03/18 09:51:42;;;;;;;18.80;4.22;;;;;;;;;;5031763;28;20369;-63
2022/03/18 09:54:09;;;;;;;14.45;3.65;;;;;;;;;;5031711;28;20030;-63
2022/03/18 09:56:36;;;;;;;8.23;3.70;;;;;;;;;;5030859;28;20022;-63
2022/03/18 09:59:02;;;;;;;12.30;3.30;;;;;;;;;;5031459;28;20037;-63
2022/03/18 10:01:28;;;;;;;10.48;2.97;;;;;;;;;;5007568;28;20030;-63
2022/03/18 10:03:54;;;;;;;14.00;3.90;;;;;;;;;;5031607;28;20021;-63
2022/03/18 10:06:27;;;;;;;9.85;2.83;;;;;;;;;;5031797;28;20037;-63
2022/03/18 10:08:55;;;;;;;9.73;3.13;;;;;;;;;;5031402;28;20402;-63
2022/03/18 10:11:28;;;;;;;9.85;2.83;;;;;;;;;;5031146;28;20105;-63
2022/03/18 10:14:03;;;;;;;13.93;3.17;;;;;;;;;;5031353;28;20068;-63
2022/03/18 10:16:33;;;;;;;14.38;2.67;;;;;;;;;;5031143;28;20119;-63
2022/03/18 10:19:00;;;;;;;12.68;2.85;;;;;;;;;;5030923;28;20469;-63
2022/03/18 10:21:28;;;;;;;13.57;3.55;;;;;;;;;;5031895;28;20053;-63
2022/03/18 10:24:11;;;;;;;9.13;3.25;;;;;;;;;;5031418;28;20511;-63
2022/03/18 10:26:38;;;;;;;11.52;3.70;;;;;;;;;;5014784;28;20488;-64
2022/03/18 10:29:05;;;;;;;10.93;3.67;;;;;;;;;;5031816;28;20040;-63
2022/03/18 10:31:31;;;;;;;14.02;3.65;;;;;;;;;;5032018;28;20048;-63
2022/03/18 10:37:05;;;;;;;12.48;3.63;;;;;;;;;;5031206;28;20044;-63
2022/03/18 10:39:33;;;;;;;14.77;3.60;;;;;;;;;;5030992;28;20420;-63
2022/03/18 10:42:00;;;;;;;16.52;4.53;;;;;;;;;;5031549;28;20026;-63
2022/03/18 10:44:27;;;;;;;16.60;4.10;;;;;;;;;;5031110;28;20030;-63
2022/03/18 10:46:56;;;;;;;11.30;4.28;;;;;;;;;;5031190;28;20033;-63
2022/03/18 10:49:24;;;;;;;11.20;3.90;;;;;;;;;;5031037;28;20038;-63
2022/03/18 10:51:50;;;;;;;11.10;3.50;;;;;;;;;;5031134;28;20355;-63
2022/03/18 10:54:24;;;;;;;14.07;3.97;;;;;;;;;;5013063;28;20412;-63
2022/03/18 10:56:54;;;;;;;8.55;3.75;;;;;;;;;;5031516;28;20068;-63
2022/03/18 10:59:22;;;;;;;8.95;3.78;;;;;;;;;;5030955;28;20057;-63
2022/03/18 11:01:48;;;;;;;14.48;3.85;;;;;;;;;;5031092;28;20096;-63
2022/03/18 11:04:18;;;;;;;11.23;3.30;;;;;;;;;;5030753;28;20083;-63
2022/03/18 11:07:29;;;;;;;11.55;3.80;;;;;;;;;;5030863;28;20029;-64
2022/03/18 11:11:07;;;;;;;11.85;3.72;;;;;;;;;;5030835;28;20130;-63
2022/03/18 11:12:23;;;;;;;9.52;3.00;;;;;;;;;;5028550;28;20110;-64
2022/03/18 11:14:53;;;;;;;16.33;2.80;;;;;;;;;;5035144;28;20048;-63
2022/03/18 11:17:20;;;;;;;17.08;3.10;;;;;;;;;;5027484;28;20094;-63
2022/03/18 11:19:46;;;;;;;11.18;3.20;;;;;;;;;;5035055;28;20019;-63
2022/03/18 11:22:15;;;;;;;10.68;3.13;;;;;;;;;;5034497;28;20028;-63
2022/03/18 11:24:41;;;;;;;7.07;2.50;;;;;;;;;;5033489;28;20025;-63
2022/03/18 11:27:08;;;;;;;10.10;2.92;;;;;;;;;;5034842;28;20798;-63
2022/03/18 11:29:34;;;;;;;14.95;2.88;;;;;;;;;;5034413;28;20037;-63
2022/03/18 11:32:10;;;;;;;17.02;2.78;;;;;;;;;;5034835;28;20072;-63
2022/03/18 11:34:46;;;;;;;13.55;2.72;;;;;;;;;;5034012;28;20032;-63
2022/03/18 11:37:12;;;;;;;10.93;2.80;;;;;;;;;;5034410;28;20397;-63
2022/03/18 11:39:38;;;;;;;12.10;2.90;;;;;;;;;;5034207;28;20646;-63
2022/03/18 11:42:07;;;;;;;8.40;2.97;;;;;;;;;;5034291;28;20030;-63
2022/03/18 11:44:36;;;;;;;11.55;2.80;;;;;;;;;;5031673;28;20021;-63
2022/03/18 11:47:21;;;;;;;15.13;3.03;;;;;;;;;;5033241;28;20099;-70
2022/03/18 11:49:47;;;;;;;11.95;3.13;;;;;;;;;;5034601;28;20018;-63
2022/03/18 11:52:13;;;;;;;9.90;2.75;;;;;;;;;;5033936;28;20099;-63
2022/03/18 11:54:59;;;;;;;9.80;2.88;;;;;;;;;;5032958;28;20033;-63
2022/03/18 11:57:31;;;;;;;13.45;3.60;;;;;;;;;;5030987;28;20026;-63
2022/03/18 12:00:00;;;;;;;10.37;3.07;;;;;;;;;;5027196;28;20524;-64
2022/03/18 12:02:39;;;;;;;10.82;3.72;;;;;;;;;;5032907;28;20720;-64
2022/03/18 12:05:06;;;;;;;11.15;3.03;;;;;;;;;;5026168;28;20040;-63
2022/03/18 12:07:48;;;;;;;12.98;3.75;;;;;;;;;;5032551;28;20038;-63
2022/03/18 12:10:15;;;;;;;12.50;3.55;;;;;;;;;;5032404;28;20048;-63
2022/03/18 12:12:42;;;;;;;10.25;4.95;;;;;;;;;;5033525;28;20125;-63
2022/03/18 12:15:15;;;;;;;12.85;4.70;;;;;;;;;;5034334;28;20029;-63
2022/03/18 12:17:45;;;;;;;13.07;3.72;;;;;;;;;;5033948;28;20076;-63
2022/03/18 12:20:15;;;;;;;10.95;4.55;;;;;;;;;;5030411;28;20088;-63
2022/03/18 12:22:42;;;;;;;13.05;4.03;;;;;;;;;;5030223;28;20025;-63
2022/03/18 12:25:09;;;;;;;11.88;3.75;;;;;;;;;;5031867;28;20481;-63
2022/03/18 12:27:40;;;;;;;12.85;3.97;;;;;;;;;;5032903;28;20037;-63
2022/03/18 12:30:10;;;;;;;12.38;4.15;;;;;;;;;;5032485;28;20060;-63
2022/03/18 12:32:40;;;;;;;12.48;5.05;;;;;;;;;;5032920;28;20460;-63
2022/03/18 12:35:06;;;;;;;8.35;4.13;;;;;;;;;;5031457;28;20026;-63
2022/03/18 12:37:34;;;;;;;12.25;4.10;;;;;;;;;;5032287;28;20076;-63
2022/03/18 12:40:12;;;;;;;12.85;4.22;;;;;;;;;;5031189;28;20032;-63
2022/03/18 12:42:48;;;;;;;11.00;4.00;;;;;;;;;;5028011;28;20078;-64
2022/03/18 12:45:27;;;;;;;16.25;4.72;;;;;;;;;;5029039;28;20037;-63
2022/03/18 12:47:54;;;;;;;14.38;5.57;;;;;;;;;;5012091;28;20163;-63
2022/03/18 12:50:24;;;;;;;14.77;5.72;;;;;;;;;;5031285;28;20469;-63
2022/03/18 12:52:50;;;;;;;14.35;4.25;;;;;;;;;;5028146;28;20118;-63
2022/03/18 12:55:18;;;;;;;11.80;5.45;;;;;;;;;;5029472;28;20079;-63
2022/03/18 12:57:50;;;;;;;13.13;4.85;;;;;;;;;;5004645;28;20120;-63
2022/03/18 13:00:17;;;;;;;13.20;4.97;;;;;;;;;;5032053;28;20021;-63
2022/03/18 13:02:44;;;;;;;15.20;4.55;;;;;;;;;;5032004;28;20469;-63
2022/03/18 13:05:15;;;;;;;9.52;4.70;;;;;;;;;;5032060;28;20076;-63
2022/03/18 13:07:42;;;;;;;10.48;5.00;;;;;;;;;;5014685;28;20545;-63
2022/03/18 13:10:08;;;;;;;11.15;4.38;;;;;;;;;;5031526;28;20040;-63
2022/03/18 13:12:35;;;;;;;13.82;4.85;;;;;;;;;;5025695;28;20393;-63
2022/03/18 13:15:18;;;;;;;12.88;4.97;;;;;;;;;;5029279;28;20049;-65
2022/03/18 13:17:45;;;;;;;11.05;4.70;;;;;;;;;;5025152;28;20068;-63
2022/03/18 13:20:28;;;;;;;11.40;5.68;;;;;;;;;;5029578;28;20044;-63
2022/03/18 13:22:55;;;;;;;17.75;5.70;;;;;;;;;;5028273;28;20017;-63
2022/03/18 13:25:22;;;;;;;15.75;5.63;;;;;;;;;;5031751;28;20053;-63
2022/03/18 13:27:48;;;;;;;11.38;6.00;;;;;;;;;;5031107;28;20041;-63
2022/03/18 13:33:01;;;;;;;13.93;5.18;;;;;;;;;;5030534;28;20039;-63
2022/03/18 13:35:27;;;;;;;11.88;4.45;;;;;;;;;;5027614;28;20112;-63
2022/03/18 13:38:06;;;;;;;14.27;4.68;;;;;;;;;;5029135;28;20104;-63
2022/03/18 13:40:32;;;;;;;8.27;4.57;;;;;;;;;;5027952;28;20113;-63
2022/03/18 13:43:04;;;;;;;15.52;5.65;;;;;;;;;;5029133;28;20030;-63
2022/03/18 13:45:31;;;;;;;19.40;7.30;;;;;;;;;;5028808;28;20104;-63
2022/03/18 13:47:57;;;;;;;15.40;5.65;;;;;;;;;;5030283;28;20053;-63
2022/03/18 13:50:25;;;;;;;14.02;5.72;;;;;;;;;;5030576;28;20378;-63
2022/03/18 13:52:52;;;;;;;18.42;6.07;;;;;;;;;;5029636;28;20029;-63
2022/03/18 13:55:30;;;;;;;17.48;5.13;;;;;;;;;;5030783;28;20017;-63
2022/03/18 13:57:57;;;;;;;15.80;4.85;;;;;;;;;;5029685;28;20394;-63
2022/03/18 14:00:30;;;;;;;15.00;4.47;;;;;;;;;;5028834;28;20033;-63
2022/03/18 14:03:02;;;;;;;15.95;4.60;;;;;;;;;;5029969;28;20108;-63
2022/03/18 14:05:28;;;;;;;14.95;5.72;;;;;;;;;;5029124;28;20024;-63
2022/03/18 14:07:54;;;;;;;10.68;4.25;;;;;;;;;;5028168;28;20083;-63
2022/03/18 14:10:20;;;;;;;14.48;4.57;;;;;;;;;;5030251;28;20524;-63
2022/03/18 14:13:04;;;;;;;14.52;4.80;;;;;;;;;;5029915;28;20544;-63
2022/03/18 14:15:41;;;;;;;10.10;4.70;;;;;;;;;;5029894;28;20053;-63
2022/03/18 14:18:07;;;;;;;10.32;4.43;;;;;;;;;;5026919;28;20385;-63
2022/03/18 14:20:57;;;;;;;15.30;4.50;;;;;;;;;;5031568;28;20032;-63
2022/03/18 14:23:28;;;;;;;10.55;3.85;;;;;;;;;;5022422;28;20033;-63
2022/03/18 14:25:55;;;;;;;16.55;4.65;;;;;;;;;;5030071;28;20017;-63
2022/03/18 14:28:22;;;;;;;8.93;3.97;;;;;;;;;;5030200;28;20052;-63
2022/03/18 14:30:50;;;;;;;10.55;3.65;;;;;;;;;;5027407;28;20027;-63
2022/03/18 14:33:18;;;;;;;10.27;3.33;;;;;;;;;;5031087;28;20037;-63
2022/03/18 14:35:44;;;;;;;11.70;3.65;;;;;;;;;;5029282;28;20113;-62
2022/03/18 14:38:10;;;;;;;6.95;3.33;;;;;;;;;;5027808;28;20049;-63
2022/03/18 14:40:36;;;;;;;10.10;4.00;;;;;;;;;;5030444;28;20021;-63
2022/03/18 14:43:03;;;;;;;9.60;3.22;;;;;;;;;;5030717;28;20436;-63
2022/03/18 14:45:29;;;;;;;7.57;3.45;;;;;;;;;;5030697;28;20029;-63
2022/03/18 14:47:56;;;;;;;8.57;3.40;;;;;;;;;;5029495;28;20037;-63
2022/03/18 14:50:22;;;;;;;12.00;3.88;;;;;;;;;;5031236;28;20076;-63
2022/03/18 14:52:48;;;;;;;11.85;3.60;;;;;;;;;;5030954;28;20029;-63
2022/03/18 14:58:06;;;;;;;10.43;3.45;;;;;;;;;;5007574;28;20506;-63